sensor_id;sensor_type;location;lat;lon;timestamp;temperature;humidity
46440;DHT22;32138;50.966;6.968;2022-08-25T00:01:56;26.00;44.90
46440;DHT22;32138;50.966;6.968;2022-08-25T00:04:01;26.00;46.10
46440;DHT22;32138;50.966;6.968;2022-08-25T00:06:05;25.90;44.80
46440;DHT22;32138;50.966;6.968;2022-08-25T00:08:06;25.80;45.70
46440;DHT22;32138;50.966;6.968;2022-08-25T00:10:08;25.70;44.90
46440;DHT22;32138;50.966;6.968;2022-08-25T00:12:09;25.80;45.10
46440;DHT22;32138;50.966;6.968;2022-08-25T00:14:17;25.80;45.10
46440;DHT22;32138;50.966;6.968;2022-08-25T00:16:22;25.80;45.10
46440;DHT22;32138;50.966;6.968;2022-08-25T00:18:23;25.80;45.10
46440;DHT22;32138;50.966;6.968;2022-08-25T00:20:25;25.70;45.10
46440;DHT22;32138;50.966;6.968;2022-08-25T00:22:27;25.80;45.10
46440;DHT22;32138;50.966;6.968;2022-08-25T00:24:28;25.80;45.10
46440;DHT22;32138;50.966;6.968;2022-08-25T00:26:29;25.80;45.40
46440;DHT22;32138;50.966;6.968;2022-08-25T00:28:30;25.70;45.40
46440;DHT22;32138;50.966;6.968;2022-08-25T00:30:31;25.70;45.70
46440;DHT22;32138;50.966;6.968;2022-08-25T00:32:32;25.60;45.60
46440;DHT22;32138;50.966;6.968;2022-08-25T00:34:36;25.50;45.50
46440;DHT22;32138;50.966;6.968;2022-08-25T00:36:37;25.50;45.60
46440;DHT22;32138;50.966;6.968;2022-08-25T00:38:40;25.60;45.80
46440;DHT22;32138;50.966;6.968;2022-08-25T00:40:43;25.60;45.80
46440;DHT22;32138;50.966;6.968;2022-08-25T00:42:44;25.60;45.50
46440;DHT22;32138;50.966;6.968;2022-08-25T00:44:44;25.60;45.90
46440;DHT22;32138;50.966;6.968;2022-08-25T00:46:51;25.60;46.10
46440;DHT22;32138;50.966;6.968;2022-08-25T00:49:00;25.60;46.30
46440;DHT22;32138;50.966;6.968;2022-08-25T00:51:03;25.60;46.60
46440;DHT22;32138;50.966;6.968;2022-08-25T00:53:07;25.60;46.50
46440;DHT22;32138;50.966;6.968;2022-08-25T00:55:14;25.70;46.40
46440;DHT22;32138;50.966;6.968;2022-08-25T00:57:26;25.60;46.60
46440;DHT22;32138;50.966;6.968;2022-08-25T00:59:29;25.50;46.60
46440;DHT22;32138;50.966;6.968;2022-08-25T01:01:30;25.50;46.80
46440;DHT22;32138;50.966;6.968;2022-08-25T01:03:31;25.50;46.70
46440;DHT22;32138;50.966;6.968;2022-08-25T01:05:33;25.40;46.90
46440;DHT22;32138;50.966;6.968;2022-08-25T01:07:35;25.50;46.50
46440;DHT22;32138;50.966;6.968;2022-08-25T01:09:37;25.40;46.90
46440;DHT22;32138;50.966;6.968;2022-08-25T01:11:39;25.50;47.30
46440;DHT22;32138;50.966;6.968;2022-08-25T01:13:45;25.40;48.00
46440;DHT22;32138;50.966;6.968;2022-08-25T01:15:49;25.30;47.40
46440;DHT22;32138;50.966;6.968;2022-08-25T01:17:55;25.30;47.30
46440;DHT22;32138;50.966;6.968;2022-08-25T01:19:56;25.30;46.80
46440;DHT22;32138;50.966;6.968;2022-08-25T01:21:57;25.30;47.50
46440;DHT22;32138;50.966;6.968;2022-08-25T01:23:59;25.20;48.00
46440;DHT22;32138;50.966;6.968;2022-08-25T01:28:07;25.00;48.60
46440;DHT22;32138;50.966;6.968;2022-08-25T01:30:09;24.90;48.80
46440;DHT22;32138;50.966;6.968;2022-08-25T01:32:12;24.90;49.40
46440;DHT22;32138;50.966;6.968;2022-08-25T01:34:15;24.90;49.00
46440;DHT22;32138;50.966;6.968;2022-08-25T01:36:19;24.80;48.90
46440;DHT22;32138;50.966;6.968;2022-08-25T01:38:20;24.80;49.10
46440;DHT22;32138;50.966;6.968;2022-08-25T01:40:21;24.80;48.90
46440;DHT22;32138;50.966;6.968;2022-08-25T01:45:08;24.70;49.30
46440;DHT22;32138;50.966;6.968;2022-08-25T01:47:10;24.70;49.70
46440;DHT22;32138;50.966;6.968;2022-08-25T01:49:11;24.70;49.30
46440;DHT22;32138;50.966;6.968;2022-08-25T01:51:14;24.80;49.30
46440;DHT22;32138;50.966;6.968;2022-08-25T01:53:23;24.50;49.80
46440;DHT22;32138;50.966;6.968;2022-08-25T01:55:27;24.50;49.90
46440;DHT22;32138;50.966;6.968;2022-08-25T01:57:29;24.40;50.10
46440;DHT22;32138;50.966;6.968;2022-08-25T01:59:30;24.40;50.20
46440;DHT22;32138;50.966;6.968;2022-08-25T02:01:31;24.30;50.20
46440;DHT22;32138;50.966;6.968;2022-08-25T02:03:35;24.30;50.20
46440;DHT22;32138;50.966;6.968;2022-08-25T02:05:37;24.30;50.40
46440;DHT22;32138;50.966;6.968;2022-08-25T02:07:39;24.30;50.80
46440;DHT22;32138;50.966;6.968;2022-08-25T02:09:41;24.20;51.20
46440;DHT22;32138;50.966;6.968;2022-08-25T02:11:45;24.40;50.50
46440;DHT22;32138;50.966;6.968;2022-08-25T02:13:46;24.40;50.70
46440;DHT22;32138;50.966;6.968;2022-08-25T02:15:50;24.30;50.80
46440;DHT22;32138;50.966;6.968;2022-08-25T02:17:51;24.20;51.20
46440;DHT22;32138;50.966;6.968;2022-08-25T02:19:52;24.20;51.20
46440;DHT22;32138;50.966;6.968;2022-08-25T02:21:55;24.20;51.50
46440;DHT22;32138;50.966;6.968;2022-08-25T02:23:55;24.10;51.70
46440;DHT22;32138;50.966;6.968;2022-08-25T02:25:56;24.20;51.40
46440;DHT22;32138;50.966;6.968;2022-08-25T02:27:57;24.20;51.20
46440;DHT22;32138;50.966;6.968;2022-08-25T02:29:58;24.30;51.80
46440;DHT22;32138;50.966;6.968;2022-08-25T02:31:59;24.30;51.00
46440;DHT22;32138;50.966;6.968;2022-08-25T02:34:00;24.20;51.30
46440;DHT22;32138;50.966;6.968;2022-08-25T02:38:19;24.10;51.20
46440;DHT22;32138;50.966;6.968;2022-08-25T02:40:20;24.10;51.70
46440;DHT22;32138;50.966;6.968;2022-08-25T02:42:21;24.20;51.30
46440;DHT22;32138;50.966;6.968;2022-08-25T02:44:23;24.20;51.30
46440;DHT22;32138;50.966;6.968;2022-08-25T02:46:24;24.20;51.20
46440;DHT22;32138;50.966;6.968;2022-08-25T02:48:25;24.20;51.60
46440;DHT22;32138;50.966;6.968;2022-08-25T02:50:26;24.20;51.20
46440;DHT22;32138;50.966;6.968;2022-08-25T02:52:26;24.20;51.00
46440;DHT22;32138;50.966;6.968;2022-08-25T02:54:27;24.30;51.50
46440;DHT22;32138;50.966;6.968;2022-08-25T02:56:29;24.30;51.20
46440;DHT22;32138;50.966;6.968;2022-08-25T02:58:30;24.20;50.80
46440;DHT22;32138;50.966;6.968;2022-08-25T03:00:31;24.20;50.70
46440;DHT22;32138;50.966;6.968;2022-08-25T03:02:32;24.30;50.80
46440;DHT22;32138;50.966;6.968;2022-08-25T03:04:33;24.30;50.80
46440;DHT22;32138;50.966;6.968;2022-08-25T03:06:34;24.20;50.80
46440;DHT22;32138;50.966;6.968;2022-08-25T03:08:36;24.20;51.10
46440;DHT22;32138;50.966;6.968;2022-08-25T03:10:37;24.20;51.10
46440;DHT22;32138;50.966;6.968;2022-08-25T03:12:38;24.10;51.10
46440;DHT22;32138;50.966;6.968;2022-08-25T03:14:40;24.10;51.00
46440;DHT22;32138;50.966;6.968;2022-08-25T03:16:41;24.10;50.80
46440;DHT22;32138;50.966;6.968;2022-08-25T03:18:43;24.20;51.10
46440;DHT22;32138;50.966;6.968;2022-08-25T03:20:44;24.20;50.70
46440;DHT22;32138;50.966;6.968;2022-08-25T03:22:45;24.20;51.30
46440;DHT22;32138;50.966;6.968;2022-08-25T03:24:46;24.10;51.10
46440;DHT22;32138;50.966;6.968;2022-08-25T03:26:47;24.20;51.20
46440;DHT22;32138;50.966;6.968;2022-08-25T03:28:54;24.10;51.70
46440;DHT22;32138;50.966;6.968;2022-08-25T03:30:55;24.10;51.40
46440;DHT22;32138;50.966;6.968;2022-08-25T03:32:56;24.10;51.50
46440;DHT22;32138;50.966;6.968;2022-08-25T03:34:57;24.10;51.20
46440;DHT22;32138;50.966;6.968;2022-08-25T03:36:58;24.10;51.20
46440;DHT22;32138;50.966;6.968;2022-08-25T03:38:59;24.00;51.50
46440;DHT22;32138;50.966;6.968;2022-08-25T03:41:00;24.10;51.50
46440;DHT22;32138;50.966;6.968;2022-08-25T03:43:01;24.00;51.70
46440;DHT22;32138;50.966;6.968;2022-08-25T03:45:03;24.00;51.90
46440;DHT22;32138;50.966;6.968;2022-08-25T03:47:05;24.00;52.00
46440;DHT22;32138;50.966;6.968;2022-08-25T03:49:07;24.00;51.70
46440;DHT22;32138;50.966;6.968;2022-08-25T03:51:09;24.00;52.00
46440;DHT22;32138;50.966;6.968;2022-08-25T03:53:10;24.00;52.00
46440;DHT22;32138;50.966;6.968;2022-08-25T03:55:12;23.80;52.40
46440;DHT22;32138;50.966;6.968;2022-08-25T03:57:14;23.80;52.60
46440;DHT22;32138;50.966;6.968;2022-08-25T03:59:15;23.80;52.50
46440;DHT22;32138;50.966;6.968;2022-08-25T04:01:16;23.80;52.60
46440;DHT22;32138;50.966;6.968;2022-08-25T04:03:18;23.70;52.90
46440;DHT22;32138;50.966;6.968;2022-08-25T04:05:19;23.70;52.90
46440;DHT22;32138;50.966;6.968;2022-08-25T04:07:20;23.80;52.80
46440;DHT22;32138;50.966;6.968;2022-08-25T04:09:21;23.80;52.90
46440;DHT22;32138;50.966;6.968;2022-08-25T04:11:22;23.70;53.00
46440;DHT22;32138;50.966;6.968;2022-08-25T04:13:24;23.70;53.10
46440;DHT22;32138;50.966;6.968;2022-08-25T04:15:24;23.70;53.20
46440;DHT22;32138;50.966;6.968;2022-08-25T04:17:26;23.70;53.20
46440;DHT22;32138;50.966;6.968;2022-08-25T04:19:26;23.70;53.30
46440;DHT22;32138;50.966;6.968;2022-08-25T04:21:27;23.60;53.60
46440;DHT22;32138;50.966;6.968;2022-08-25T04:23:28;23.60;53.60
46440;DHT22;32138;50.966;6.968;2022-08-25T04:25:29;23.70;53.70
46440;DHT22;32138;50.966;6.968;2022-08-25T04:27:30;23.60;54.00
46440;DHT22;32138;50.966;6.968;2022-08-25T04:29:31;23.50;54.00
46440;DHT22;32138;50.966;6.968;2022-08-25T04:31:32;23.50;54.40
46440;DHT22;32138;50.966;6.968;2022-08-25T04:33:34;23.50;54.70
46440;DHT22;32138;50.966;6.968;2022-08-25T04:35:36;23.40;54.90
46440;DHT22;32138;50.966;6.968;2022-08-25T04:37:36;23.40;55.20
46440;DHT22;32138;50.966;6.968;2022-08-25T04:39:37;23.40;55.10
46440;DHT22;32138;50.966;6.968;2022-08-25T04:41:38;23.50;55.00
46440;DHT22;32138;50.966;6.968;2022-08-25T04:43:40;23.50;55.00
46440;DHT22;32138;50.966;6.968;2022-08-25T04:45:42;23.50;55.00
46440;DHT22;32138;50.966;6.968;2022-08-25T04:47:42;23.40;55.20
46440;DHT22;32138;50.966;6.968;2022-08-25T04:49:43;23.50;55.10
46440;DHT22;32138;50.966;6.968;2022-08-25T04:51:44;23.50;55.40
46440;DHT22;32138;50.966;6.968;2022-08-25T04:53:45;23.60;55.30
46440;DHT22;32138;50.966;6.968;2022-08-25T04:55:47;23.50;55.30
46440;DHT22;32138;50.966;6.968;2022-08-25T04:57:48;23.50;55.40
46440;DHT22;32138;50.966;6.968;2022-08-25T04:59:48;23.50;55.40
46440;DHT22;32138;50.966;6.968;2022-08-25T05:01:50;23.60;54.80
46440;DHT22;32138;50.966;6.968;2022-08-25T05:03:57;23.60;55.20
46440;DHT22;32138;50.966;6.968;2022-08-25T05:06:00;23.50;55.50
46440;DHT22;32138;50.966;6.968;2022-08-25T05:08:02;23.40;56.00
46440;DHT22;32138;50.966;6.968;2022-08-25T05:10:03;23.30;56.10
46440;DHT22;32138;50.966;6.968;2022-08-25T05:12:04;23.40;56.10
46440;DHT22;32138;50.966;6.968;2022-08-25T05:14:05;23.40;56.00
46440;DHT22;32138;50.966;6.968;2022-08-25T05:16:10;23.30;56.30
46440;DHT22;32138;50.966;6.968;2022-08-25T05:18:11;23.30;56.40
46440;DHT22;32138;50.966;6.968;2022-08-25T05:20:12;23.40;56.30
46440;DHT22;32138;50.966;6.968;2022-08-25T05:22:13;23.40;56.30
46440;DHT22;32138;50.966;6.968;2022-08-25T05:24:13;23.30;56.40
46440;DHT22;32138;50.966;6.968;2022-08-25T05:26:19;23.40;56.70
46440;DHT22;32138;50.966;6.968;2022-08-25T05:28:21;23.40;56.60
46440;DHT22;32138;50.966;6.968;2022-08-25T05:30:22;23.30;56.70
46440;DHT22;32138;50.966;6.968;2022-08-25T05:32:23;23.20;56.90
46440;DHT22;32138;50.966;6.968;2022-08-25T05:34:24;23.20;57.00
46440;DHT22;32138;50.966;6.968;2022-08-25T05:36:26;23.30;57.20
46440;DHT22;32138;50.966;6.968;2022-08-25T05:38:28;23.30;57.40
46440;DHT22;32138;50.966;6.968;2022-08-25T05:40:29;23.30;57.40
46440;DHT22;32138;50.966;6.968;2022-08-25T05:42:30;23.40;57.30
46440;DHT22;32138;50.966;6.968;2022-08-25T05:44:31;23.40;57.10
46440;DHT22;32138;50.966;6.968;2022-08-25T05:46:32;23.50;57.00
46440;DHT22;32138;50.966;6.968;2022-08-25T05:48:33;23.60;57.00
46440;DHT22;32138;50.966;6.968;2022-08-25T05:50:34;23.60;57.00
46440;DHT22;32138;50.966;6.968;2022-08-25T05:52:35;23.60;56.80
46440;DHT22;32138;50.966;6.968;2022-08-25T05:54:36;23.60;57.10
46440;DHT22;32138;50.966;6.968;2022-08-25T05:56:37;23.60;57.00
46440;DHT22;32138;50.966;6.968;2022-08-25T05:58:38;23.70;56.80
46440;DHT22;32138;50.966;6.968;2022-08-25T06:00:39;23.60;57.20
46440;DHT22;32138;50.966;6.968;2022-08-25T06:02:40;23.60;57.20
46440;DHT22;32138;50.966;6.968;2022-08-25T06:04:43;23.40;58.20
46440;DHT22;32138;50.966;6.968;2022-08-25T06:06:44;23.50;57.80
46440;DHT22;32138;50.966;6.968;2022-08-25T06:08:45;23.40;57.80
46440;DHT22;32138;50.966;6.968;2022-08-25T06:10:51;23.30;57.90
46440;DHT22;32138;50.966;6.968;2022-08-25T06:12:52;23.50;57.90
46440;DHT22;32138;50.966;6.968;2022-08-25T06:14:53;23.60;57.80
46440;DHT22;32138;50.966;6.968;2022-08-25T06:16:54;23.60;57.70
46440;DHT22;32138;50.966;6.968;2022-08-25T06:18:54;23.60;57.60
46440;DHT22;32138;50.966;6.968;2022-08-25T06:20:55;23.80;57.40
46440;DHT22;32138;50.966;6.968;2022-08-25T06:22:56;23.80;57.20
46440;DHT22;32138;50.966;6.968;2022-08-25T06:24:57;23.80;57.50
46440;DHT22;32138;50.966;6.968;2022-08-25T06:26:58;23.70;57.40
46440;DHT22;32138;50.966;6.968;2022-08-25T06:28:59;23.70;57.50
46440;DHT22;32138;50.966;6.968;2022-08-25T06:31:00;23.60;57.70
46440;DHT22;32138;50.966;6.968;2022-08-25T06:33:01;23.70;57.70
46440;DHT22;32138;50.966;6.968;2022-08-25T06:35:07;23.80;57.70
46440;DHT22;32138;50.966;6.968;2022-08-25T06:37:10;23.90;57.40
46440;DHT22;32138;50.966;6.968;2022-08-25T06:39:11;24.00;57.50
46440;DHT22;32138;50.966;6.968;2022-08-25T06:41:12;24.10;57.30
46440;DHT22;32138;50.966;6.968;2022-08-25T06:43:13;24.10;57.20
46440;DHT22;32138;50.966;6.968;2022-08-25T06:45:15;24.10;57.30
46440;DHT22;32138;50.966;6.968;2022-08-25T06:47:16;24.30;56.90
46440;DHT22;32138;50.966;6.968;2022-08-25T06:49:18;24.20;56.80
46440;DHT22;32138;50.966;6.968;2022-08-25T06:51:19;24.30;56.80
46440;DHT22;32138;50.966;6.968;2022-08-25T06:53:21;24.20;56.90
46440;DHT22;32138;50.966;6.968;2022-08-25T06:55:21;24.10;57.40
46440;DHT22;32138;50.966;6.968;2022-08-25T06:57:22;24.40;56.90
46440;DHT22;32138;50.966;6.968;2022-08-25T06:59:23;24.40;57.10
46440;DHT22;32138;50.966;6.968;2022-08-25T07:01:25;24.40;56.50
46440;DHT22;32138;50.966;6.968;2022-08-25T07:03:26;24.40;56.60
46440;DHT22;32138;50.966;6.968;2022-08-25T07:05:28;24.40;56.60
46440;DHT22;32138;50.966;6.968;2022-08-25T07:07:29;24.50;56.80
46440;DHT22;32138;50.966;6.968;2022-08-25T07:09:30;24.60;56.60
46440;DHT22;32138;50.966;6.968;2022-08-25T07:11:31;24.60;56.70
46440;DHT22;32138;50.966;6.968;2022-08-25T07:13:34;24.60;56.40
46440;DHT22;32138;50.966;6.968;2022-08-25T07:15:39;24.70;56.50
46440;DHT22;32138;50.966;6.968;2022-08-25T07:17:40;24.80;56.10
46440;DHT22;32138;50.966;6.968;2022-08-25T07:19:41;24.70;56.10
46440;DHT22;32138;50.966;6.968;2022-08-25T07:21:42;24.60;56.20
46440;DHT22;32138;50.966;6.968;2022-08-25T07:23:45;24.70;56.30
46440;DHT22;32138;50.966;6.968;2022-08-25T07:25:46;24.90;56.40
46440;DHT22;32138;50.966;6.968;2022-08-25T07:27:47;25.00;56.20
46440;DHT22;32138;50.966;6.968;2022-08-25T07:29:47;25.00;56.00
46440;DHT22;32138;50.966;6.968;2022-08-25T07:31:49;25.00;55.70
46440;DHT22;32138;50.966;6.968;2022-08-25T07:33:50;24.90;55.90
46440;DHT22;32138;50.966;6.968;2022-08-25T07:36:09;25.00;56.10
46440;DHT22;32138;50.966;6.968;2022-08-25T07:38:10;25.00;56.40
46440;DHT22;32138;50.966;6.968;2022-08-25T07:40:17;25.20;55.80
46440;DHT22;32138;50.966;6.968;2022-08-25T07:42:23;25.10;55.50
46440;DHT22;32138;50.966;6.968;2022-08-25T07:44:26;25.20;55.70
46440;DHT22;32138;50.966;6.968;2022-08-25T07:46:27;25.20;55.50
46440;DHT22;32138;50.966;6.968;2022-08-25T07:48:28;25.30;55.40
46440;DHT22;32138;50.966;6.968;2022-08-25T07:50:31;25.30;55.50
46440;DHT22;32138;50.966;6.968;2022-08-25T07:52:32;25.40;55.50
46440;DHT22;32138;50.966;6.968;2022-08-25T07:54:34;25.50;55.50
46440;DHT22;32138;50.966;6.968;2022-08-25T07:56:35;25.60;55.10
46440;DHT22;32138;50.966;6.968;2022-08-25T07:58:37;25.60;55.10
46440;DHT22;32138;50.966;6.968;2022-08-25T08:00:37;25.70;54.90
46440;DHT22;32138;50.966;6.968;2022-08-25T08:02:41;25.80;54.70
46440;DHT22;32138;50.966;6.968;2022-08-25T08:04:42;25.80;54.40
46440;DHT22;32138;50.966;6.968;2022-08-25T08:06:44;25.80;54.90
46440;DHT22;32138;50.966;6.968;2022-08-25T08:08:46;25.80;54.40
46440;DHT22;32138;50.966;6.968;2022-08-25T08:10:48;25.70;54.20
46440;DHT22;32138;50.966;6.968;2022-08-25T08:12:49;25.70;54.30
46440;DHT22;32138;50.966;6.968;2022-08-25T08:14:51;25.90;54.30
46440;DHT22;32138;50.966;6.968;2022-08-25T08:16:53;26.10;54.80
46440;DHT22;32138;50.966;6.968;2022-08-25T08:18:54;26.10;54.10
46440;DHT22;32138;50.966;6.968;2022-08-25T08:20:55;26.20;54.10
46440;DHT22;32138;50.966;6.968;2022-08-25T08:22:56;26.30;54.00
46440;DHT22;32138;50.966;6.968;2022-08-25T08:24:56;26.40;53.70
46440;DHT22;32138;50.966;6.968;2022-08-25T08:26:57;26.50;53.70
46440;DHT22;32138;50.966;6.968;2022-08-25T08:28:58;26.50;53.80
46440;DHT22;32138;50.966;6.968;2022-08-25T08:31:00;26.60;53.50
46440;DHT22;32138;50.966;6.968;2022-08-25T08:33:01;26.60;53.70
46440;DHT22;32138;50.966;6.968;2022-08-25T08:35:03;26.60;53.70
46440;DHT22;32138;50.966;6.968;2022-08-25T08:37:05;26.60;53.30
46440;DHT22;32138;50.966;6.968;2022-08-25T08:39:07;26.70;53.40
46440;DHT22;32138;50.966;6.968;2022-08-25T08:46:39;26.90;52.70
46440;DHT22;32138;50.966;6.968;2022-08-25T08:49:09;26.80;52.80
46440;DHT22;32138;50.966;6.968;2022-08-25T08:51:47;27.00;53.20
46440;DHT22;32138;50.966;6.968;2022-08-25T08:54:12;27.00;53.00
46440;DHT22;32138;50.966;6.968;2022-08-25T08:56:27;27.00;53.00
46440;DHT22;32138;50.966;6.968;2022-08-25T09:00:47;27.10;52.90
46440;DHT22;32138;50.966;6.968;2022-08-25T09:03:11;27.20;52.90
46440;DHT22;32138;50.966;6.968;2022-08-25T09:05:19;27.30;52.50
46440;DHT22;32138;50.966;6.968;2022-08-25T09:07:25;27.30;52.80
46440;DHT22;32138;50.966;6.968;2022-08-25T09:09:33;27.40;52.60
46440;DHT22;32138;50.966;6.968;2022-08-25T09:11:51;27.50;52.70
46440;DHT22;32138;50.966;6.968;2022-08-25T09:21:52;27.70;52.10
46440;DHT22;32138;50.966;6.968;2022-08-25T09:29:25;27.60;51.40
46440;DHT22;32138;50.966;6.968;2022-08-25T09:31:36;27.70;51.60
46440;DHT22;32138;50.966;6.968;2022-08-25T09:33:38;27.80;51.50
46440;DHT22;32138;50.966;6.968;2022-08-25T09:35:39;27.90;51.30
46440;DHT22;32138;50.966;6.968;2022-08-25T09:37:41;28.00;51.80
46440;DHT22;32138;50.966;6.968;2022-08-25T09:39:42;28.00;51.00
46440;DHT22;32138;50.966;6.968;2022-08-25T09:41:49;28.10;50.80
46440;DHT22;32138;50.966;6.968;2022-08-25T09:43:56;28.10;50.70
46440;DHT22;32138;50.966;6.968;2022-08-25T09:46:16;28.10;50.50
46440;DHT22;32138;50.966;6.968;2022-08-25T09:48:31;28.20;50.30
46440;DHT22;32138;50.966;6.968;2022-08-25T09:50:39;28.30;50.30
46440;DHT22;32138;50.966;6.968;2022-08-25T09:52:40;28.20;51.10
46440;DHT22;32138;50.966;6.968;2022-08-25T09:54:43;28.40;50.50
46440;DHT22;32138;50.966;6.968;2022-08-25T09:59:29;28.50;49.80
46440;DHT22;32138;50.966;6.968;2022-08-25T10:01:50;28.40;50.10
46440;DHT22;32138;50.966;6.968;2022-08-25T10:06:07;28.60;50.00
46440;DHT22;32138;50.966;6.968;2022-08-25T10:08:23;28.60;49.60
46440;DHT22;32138;50.966;6.968;2022-08-25T10:10:32;28.60;49.30
46440;DHT22;32138;50.966;6.968;2022-08-25T10:12:43;28.60;49.30
46440;DHT22;32138;50.966;6.968;2022-08-25T10:14:46;28.60;49.50
46440;DHT22;32138;50.966;6.968;2022-08-25T10:16:48;28.60;48.70
46440;DHT22;32138;50.966;6.968;2022-08-25T10:19:11;28.60;48.70
46440;DHT22;32138;50.966;6.968;2022-08-25T10:21:14;28.60;48.50
46440;DHT22;32138;50.966;6.968;2022-08-25T10:23:16;28.60;48.70
46440;DHT22;32138;50.966;6.968;2022-08-25T10:25:28;28.70;48.30
46440;DHT22;32138;50.966;6.968;2022-08-25T10:28:01;28.70;48.50
46440;DHT22;32138;50.966;6.968;2022-08-25T10:35:31;28.80;47.30
46440;DHT22;32138;50.966;6.968;2022-08-25T10:38:24;28.90;47.00
46440;DHT22;32138;50.966;6.968;2022-08-25T10:43:37;28.80;47.70
46440;DHT22;32138;50.966;6.968;2022-08-25T10:58:29;29.00;47.50
46440;DHT22;32138;50.966;6.968;2022-08-25T11:05:58;29.20;46.80
46440;DHT22;32138;50.966;6.968;2022-08-25T11:08:05;29.20;46.40
46440;DHT22;32138;50.966;6.968;2022-08-25T11:10:15;29.30;46.10
46440;DHT22;32138;50.966;6.968;2022-08-25T11:12:38;29.30;45.40
46440;DHT22;32138;50.966;6.968;2022-08-25T11:15:10;29.50;44.80
46440;DHT22;32138;50.966;6.968;2022-08-25T11:17:19;29.50;44.70
46440;DHT22;32138;50.966;6.968;2022-08-25T11:19:29;29.50;44.70
46440;DHT22;32138;50.966;6.968;2022-08-25T11:21:55;29.40;44.80
46440;DHT22;32138;50.966;6.968;2022-08-25T11:26:41;29.40;44.30
46440;DHT22;32138;50.966;6.968;2022-08-25T11:29:00;29.50;44.40
46440;DHT22;32138;50.966;6.968;2022-08-25T11:31:05;29.50;44.00
46440;DHT22;32138;50.966;6.968;2022-08-25T11:33:11;29.50;44.60
46440;DHT22;32138;50.966;6.968;2022-08-25T11:35:16;29.50;43.10
46440;DHT22;32138;50.966;6.968;2022-08-25T11:37:25;29.60;42.80
46440;DHT22;32138;50.966;6.968;2022-08-25T11:39:33;29.60;43.00
46440;DHT22;32138;50.966;6.968;2022-08-25T11:50:33;29.70;42.90
46440;DHT22;32138;50.966;6.968;2022-08-25T11:52:44;29.70;43.00
46440;DHT22;32138;50.966;6.968;2022-08-25T11:54:48;29.80;42.80
46440;DHT22;32138;50.966;6.968;2022-08-25T11:58:59;29.90;43.00
46440;DHT22;32138;50.966;6.968;2022-08-25T12:01:02;29.80;43.20
46440;DHT22;32138;50.966;6.968;2022-08-25T12:11:55;30.10;40.70
46440;DHT22;32138;50.966;6.968;2022-08-25T12:16:41;30.10;40.10
46440;DHT22;32138;50.966;6.968;2022-08-25T12:21:33;30.00;39.80
46440;DHT22;32138;50.966;6.968;2022-08-25T12:26:28;30.30;40.40
46440;DHT22;32138;50.966;6.968;2022-08-25T12:29:13;30.30;41.20
46440;DHT22;32138;50.966;6.968;2022-08-25T12:31:44;30.20;40.50
46440;DHT22;32138;50.966;6.968;2022-08-25T12:34:01;30.20;40.60
46440;DHT22;32138;50.966;6.968;2022-08-25T12:36:06;30.30;40.60
46440;DHT22;32138;50.966;6.968;2022-08-25T12:38:10;30.30;40.70
46440;DHT22;32138;50.966;6.968;2022-08-25T12:42:38;30.50;39.70
46440;DHT22;32138;50.966;6.968;2022-08-25T12:44:44;30.50;39.40
46440;DHT22;32138;50.966;6.968;2022-08-25T12:47:06;30.50;39.20
46440;DHT22;32138;50.966;6.968;2022-08-25T12:49:32;30.50;39.20
46440;DHT22;32138;50.966;6.968;2022-08-25T12:53:51;30.50;39.10
46440;DHT22;32138;50.966;6.968;2022-08-25T12:56:31;30.60;39.20
46440;DHT22;32138;50.966;6.968;2022-08-25T12:59:15;30.60;40.00
46440;DHT22;32138;50.966;6.968;2022-08-25T13:03:57;30.80;39.70
46440;DHT22;32138;50.966;6.968;2022-08-25T13:06:25;30.90;39.70
46440;DHT22;32138;50.966;6.968;2022-08-25T13:09:18;30.90;38.50
46440;DHT22;32138;50.966;6.968;2022-08-25T13:14:50;31.10;39.70
46440;DHT22;32138;50.966;6.968;2022-08-25T13:16:53;31.10;39.70
46440;DHT22;32138;50.966;6.968;2022-08-25T13:18:56;31.10;39.60
46440;DHT22;32138;50.966;6.968;2022-08-25T13:21:14;31.30;40.00
46440;DHT22;32138;50.966;6.968;2022-08-25T13:23:25;31.40;40.00
46440;DHT22;32138;50.966;6.968;2022-08-25T13:25:28;31.60;38.90
46440;DHT22;32138;50.966;6.968;2022-08-25T13:27:34;31.60;39.20
46440;DHT22;32138;50.966;6.968;2022-08-25T13:29:50;31.70;39.00
46440;DHT22;32138;50.966;6.968;2022-08-25T13:32:07;31.80;39.40
46440;DHT22;32138;50.966;6.968;2022-08-25T13:34:16;31.80;38.20
46440;DHT22;32138;50.966;6.968;2022-08-25T13:36:18;31.70;36.80
46440;DHT22;32138;50.966;6.968;2022-08-25T13:38:38;31.70;36.70
46440;DHT22;32138;50.966;6.968;2022-08-25T13:40:39;31.70;37.40
46440;DHT22;32138;50.966;6.968;2022-08-25T13:42:42;31.90;37.40
46440;DHT22;32138;50.966;6.968;2022-08-25T13:44:44;31.90;37.30
46440;DHT22;32138;50.966;6.968;2022-08-25T13:46:46;32.10;36.90
46440;DHT22;32138;50.966;6.968;2022-08-25T13:48:47;32.00;36.80
46440;DHT22;32138;50.966;6.968;2022-08-25T13:50:48;32.10;36.90
46440;DHT22;32138;50.966;6.968;2022-08-25T13:54:59;32.30;36.00
46440;DHT22;32138;50.966;6.968;2022-08-25T13:57:12;32.30;36.60
46440;DHT22;32138;50.966;6.968;2022-08-25T13:59:24;32.30;37.80
46440;DHT22;32138;50.966;6.968;2022-08-25T14:01:29;32.40;36.20
46440;DHT22;32138;50.966;6.968;2022-08-25T14:05:41;32.30;35.20
46440;DHT22;32138;50.966;6.968;2022-08-25T14:07:55;32.20;35.20
46440;DHT22;32138;50.966;6.968;2022-08-25T14:10:08;32.30;35.10
46440;DHT22;32138;50.966;6.968;2022-08-25T14:12:46;32.20;35.80
46440;DHT22;32138;50.966;6.968;2022-08-25T14:15:00;32.10;38.00
46440;DHT22;32138;50.966;6.968;2022-08-25T14:17:09;32.10;36.80
46440;DHT22;32138;50.966;6.968;2022-08-25T14:19:14;32.20;36.20
46440;DHT22;32138;50.966;6.968;2022-08-25T14:21:21;32.30;36.40
46440;DHT22;32138;50.966;6.968;2022-08-25T14:23:26;32.10;36.70
46440;DHT22;32138;50.966;6.968;2022-08-25T14:25:29;32.10;36.40
46440;DHT22;32138;50.966;6.968;2022-08-25T14:27:31;32.00;36.90
46440;DHT22;32138;50.966;6.968;2022-08-25T14:29:31;32.20;36.80
46440;DHT22;32138;50.966;6.968;2022-08-25T14:31:34;32.30;36.30
46440;DHT22;32138;50.966;6.968;2022-08-25T14:33:44;32.30;36.10
46440;DHT22;32138;50.966;6.968;2022-08-25T14:35:53;32.20;35.00
46440;DHT22;32138;50.966;6.968;2022-08-25T14:37:55;32.30;35.00
46440;DHT22;32138;50.966;6.968;2022-08-25T14:39:56;32.30;35.30
46440;DHT22;32138;50.966;6.968;2022-08-25T14:41:57;32.30;35.10
46440;DHT22;32138;50.966;6.968;2022-08-25T14:43:59;32.40;34.90
46440;DHT22;32138;50.966;6.968;2022-08-25T14:46:05;32.40;35.00
46440;DHT22;32138;50.966;6.968;2022-08-25T14:48:15;32.40;36.10
46440;DHT22;32138;50.966;6.968;2022-08-25T14:50:20;32.50;36.20
46440;DHT22;32138;50.966;6.968;2022-08-25T14:52:26;32.60;36.80
46440;DHT22;32138;50.966;6.968;2022-08-25T14:54:29;32.60;35.50